TRPR55 YBOK-YBOK
Flight info
| Callsign | TRPR55 |
|---|---|
| Flight time | 0h 1m |
| Altitude | 4500 |
| Route | YBOK35807 YBOK015008 |
| Aircraft | H60/L-DGILORTUVY/SB2 |
Departure
| Time | 2026-04-14 10:03 |
|---|---|
| Airport | Oakey Army Aviation Centre (YBOK) |
Arrival
| Time | 2026-04-14 10:05 |
|---|---|
| Airport | Oakey Army Aviation Centre (YBOK) |
| Time | Latitude | Longitude | Altitude | Speed | Heading |
|---|---|---|---|---|---|
| 2026-04-14 09:41 | -27.41356 | 151.73784 | 1337 ft | 0 kts | 98° |
| 2026-04-14 09:59 | -27.41354 | 151.73794 | 1336 ft | 4 kts | 36° |
| 2026-04-14 10:00 | -27.41346 | 151.73791 | 1337 ft | 1 kts | 285° |
| 2026-04-14 10:00 | -27.41346 | 151.73790 | 1338 ft | 0 kts | 285° |
| 2026-04-14 10:00 | -27.41345 | 151.73786 | 1336 ft | 1 kts | 284° |
| 2026-04-14 10:00 | -27.41342 | 151.73772 | 1335 ft | 2 kts | 281° |
| 2026-04-14 10:01 | -27.41332 | 151.73753 | 1336 ft | 4 kts | 356° |
| 2026-04-14 10:01 | -27.41318 | 151.73754 | 1337 ft | 0 kts | 9° |
| 2026-04-14 10:01 | -27.41315 | 151.73755 | 1336 ft | 1 kts | 8° |
| 2026-04-14 10:01 | -27.41308 | 151.73755 | 1336 ft | 1 kts | 4° |
| 2026-04-14 10:02 | -27.41295 | 151.73756 | 1336 ft | 2 kts | 358° |
| 2026-04-14 10:02 | -27.41281 | 151.73757 | 1336 ft | 3 kts | 358° |
| 2026-04-14 10:02 | -27.41265 | 151.73733 | 1336 ft | 6 kts | 283° |
| 2026-04-14 10:02 | -27.41238 | 151.73592 | 1346 ft | 33 kts | 282° |
| 2026-04-14 10:03 | -27.41159 | 151.73220 | 1402 ft | 66 kts | 274° |
| 2026-04-14 10:03 | -27.41097 | 151.72580 | 1406 ft | 90 kts | 275° |
| 2026-04-14 10:03 | -27.41009 | 151.71961 | 1853 ft | 73 kts | 282° |
| 2026-04-14 10:03 | -27.40911 | 151.71316 | 2234 ft | 103 kts | 277° |
| 2026-04-14 10:04 | -27.40877 | 151.70395 | 2362 ft | 128 kts | 275° |
| 2026-04-14 10:04 | -27.40706 | 151.69330 | 2628 ft | 147 kts | 290° |
| 2026-04-14 10:04 | -27.40276 | 151.68285 | 2755 ft | 152 kts | 314° |
| 2026-04-14 10:04 | -27.39476 | 151.67580 | 2748 ft | 140 kts | 348° |
| 2026-04-14 10:05 | -27.38509 | 151.67651 | 2558 ft | 155 kts | 20° |
| 2026-04-14 10:05 | -27.37421 | 151.68034 | 2149 ft | 168 kts | 28° |
| 2026-04-14 10:05 | -27.36593 | 151.68439 | 1462 ft | 0 kts | 13° |